Tiempo atmosférico en la estación meteorológica de Alberca de Zancara, Cuenca (805 m.)



Fecha
DESCASC
Temp. máxima en grados centígrados (hora)
DESCASC
Temp. mínima en grados centígrados (hora)
DESCASC
Temp. media en grados centígrados
DESCASC
Racha de viento máxima en m/sg (hora)
DESCASC
Velocidad máxima media en intervalos de 10 minutos(hora)
DESCASC
Precipitaciones diarias en mm
DESCASC
Precipitaciones de 00:00 a 06:00 en mm
DESCASC
Precipitaciones de 06:00 a 12:00 en mm
DESCASC
Precipitaciones de 12:00 a 18:00 en mm
DESCASC
Precipitaciones de 18:00 a 24:00 en mm
DESCASC
18-01-2018 12.3 (15:50) 1.1 (07:30) 6.7 6.67 (12:10) 3.61 (12:40) 0 0 0 0 0
17-01-2018 12.3 (16:40) 2 (01:00) 7.2 7.5 (14:10) 3.61 (16:40) 0.2 0 0.2 0 0
16-01-2018 9.9 (16:20) -0.5 (05:50) 4.7 7.5 (16:00) 3.61 (15:30) 0 0 0 0 0
15-01-2018 7.8 (16:00) -0.9 (09:10) 3.5 5 (16:10) 2.78 (23:00) 0 0 0 0 0
14-01-2018 6.1 (14:30) 1.1 (00:00) 3.6 6.67 (00:10) 4.72 (00:10) 0.4 0 0.4 0 0
13-01-2018 7.6 (15:30) -0.1 (00:00) 3.7 11.39 (16:00) 5.28 (22:30) 1.6 0 0 0.2 1.4
12-01-2018 7.7 (14:30) -0.8 (-00:0) 3.4 6.39 (15:20) 3.33 (15:50) 0 0 0 0 0
11-01-2018 6.7 (15:20) 1.2 (00:00) 3.9 12.22 (15:00) 7.5 (13:50) 0.4 0 0.4 0 0
10-01-2018 8.3 (15:50) 3 (00:00) 5.7 11.39 (15:40) 7.22 (21:30) 9 3.6 0.4 0 5
09-01-2018 3.9 (15:40) -3.6 (-00:0) 0.2 5.83 (14:20) 2.5 (14:20) 1.8 0 0.2 0 1.6
08-01-2018 5 (15:50) -1.5 (-00:0) 1.8 2.78 (12:50) 1.11 (12:50) 2.6 0 0 2.6 0
07-01-2018 3.9 (16:40) 0.1 (00:00) 2 7.22 (11:20) 3.33 (03:40) 4.2 1.6 1.8 0.8 0
06-01-2018 8 (00:00) 0.6 (00:00) 4.3 9.72 (20:50) 4.72 (20:50) 4.6 0 0 3.6 1
05-01-2018 10.3 (16:10) 6.4 (00:00) 8.4 10.83 (12:50) 6.39 (12:50) 0 0 0 0 0
04-01-2018 11.1 (16:30) 8.2 (07:30) 9.7 8.06 (17:40) 4.44 (18:30) 0.2 0 0.2 0 0
03-01-2018 10.1 (16:00) 5.1 (00:00) 7.6 7.5 (20:00) 3.89 (00:30) 0.4 0.2 0.2 0 0
02-01-2018 9.8 (15:30) 3.4 (00:00) 6.6 11.11 (04:10) 5.56 (03:30) 0 0 0 0 0
01-01-2018 8.2 (15:20) -0.2 (00:00) 4 9.72 (02:10) 6.39 (02:10) 0 0 0 0 0
31-12-2017 9.5 (15:50) 2 (00:00) 5.8 13.61 (21:00) 7.78 (21:00) 1.8 0 0 0 1.8
30-12-2017 12 (12:50) 4.3 (00:00) 8.2 7.78 (12:20) 4.17 (13:10) 0 0 0 0 0
29-12-2017 13.8 (16:00) 7.4 (00:00) 10.6 10.56 (02:00) 6.39 (02:10) 0.2 0 0 0.2 0
28-12-2017 11.8 (16:40) 4 (00:00) 7.9 11.11 (06:20) 5.56 (09:30) 1.6 0.4 1 0.2 0
27-12-2017 9 (13:50) 3.8 (00:00) 6.4 16.11 (06:10) 8.33 (06:20) 8.8 7.4 1 0 0.4
26-12-2017 6.8 (07:10) 3.7 (00:00) 5.3 11.11 (23:50) 6.39 (13:40) 2.4 1 1.4 0 0
25-12-2017 8.3 (15:40) 1.2 (00:00) 4.8 5.83 (16:10) 2.78 (16:10) 0.4 0 0 0 0.4
24-12-2017 11.4 (15:50) 1.9 (00:00) 6.6 5.83 (14:20) 3.33 (13:40) 0 0 0 0 0

Gráficas

Temp. máximas Temp. mínimas Temp. medias Precipitaciones Rachas de viento máximas Velocidades máximas media en intervalos de 10 minutos

Datos horarios

Fecha y hora oficial Temperatura (ºC) Velocidad del viento (km/h) Dirección del viento Racha (km/h) Dirección de racha Precipitación (mm) Presión (hPa) Tendencia (hPa) Humedad (%)
2018-01-22 23:00:00 7.6 9 Norte 19 Noroeste 0 -- -- 80
2018-01-22 22:00:00 7.9 6 Noroeste 16 Norte 0 -- -- 78
2018-01-22 21:00:00 7.6 0 Calma 13 Noroeste 0 -- -- 78
2018-01-22 20:00:00 8.8 4 Noroeste 15 Noroeste 0 -- -- 74
2018-01-22 19:00:00 9.7 3 Sudoeste 12 Oeste 0 -- -- 71
2018-01-22 18:00:00 11.9 6 Oeste 17 Oeste 0 -- -- 64
2018-01-22 17:00:00 13.4 12 Oeste 21 Oeste 0 -- -- 61
2018-01-22 16:00:00 14 13 Oeste 23 Oeste 0 -- -- 61
2018-01-22 15:00:00 13.8 10 Oeste 22 Oeste 0 -- -- 65
2018-01-22 14:00:00 13.2 8 Oeste 21 Oeste 0 -- -- 69
2018-01-22 13:00:00 11.9 9 Oeste 16 Oeste 0 -- -- 73
2018-01-22 12:00:00 9.2 8 Oeste 16 Oeste 0 -- -- 93
2018-01-22 11:00:00 6.8 8 Oeste 16 Oeste 0 -- -- 96
2018-01-22 10:00:00 4.5 4 Oeste 10 Oeste 0 -- -- 97
2018-01-22 09:00:00 2.7 4 Noroeste 7 Noroeste 0 -- -- 96
2018-01-22 08:00:00 3.2 3 Norte 8 Norte 0 -- -- 95
2018-01-22 07:00:00 2.1 0 Calma 4 Noroeste 0 -- -- 93
2018-01-22 06:00:00 2.5 0 Calma 5 Oeste 0 -- -- 93
2018-01-22 05:00:00 2.9 0 Calma 3 Oeste 0 -- -- 91
2018-01-22 04:00:00 3.9 2 Sur 7 Norte 0 -- -- 91
2018-01-22 03:00:00 4.1 0 Calma 4 Oeste 0 -- -- 90
2018-01-22 02:00:00 5.2 3 Oeste 7 Sudoeste 0 -- -- 86
2018-01-22 01:00:00 7.3 3 Noroeste 15 Noroeste 0 -- -- 85
2018-01-22 00:00:00 8.2 7 Noroeste 15 Noroeste 0 -- -- 82
2018-01-21 23:00:00 8.3 6 Noroeste 14 Noroeste 0 -- -- 81
2018-01-21 22:00:00 8.7 8 Noroeste 14 Noroeste 0 -- -- 80
2018-01-21 21:00:00 9.1 8 Noroeste 14 Noroeste 0 -- -- 76
2018-01-21 20:00:00 9.5 4 Noroeste 14 Noroeste 0 -- -- 74
2018-01-21 19:00:00 11 8 Noroeste 21 Noroeste 0 -- -- 68
2018-01-21 18:00:00 13.3 11 Noroeste 28 Noroeste 0 -- -- 62
2018-01-21 17:00:00 14.4 15 Noroeste 30 Noroeste 0 -- -- 58
2018-01-21 16:00:00 14.8 16 Noroeste 28 Noroeste 0 -- -- 58
2018-01-21 15:00:00 14.2 14 Noroeste 25 Noroeste 0 -- -- 60
2018-01-21 14:00:00 12.8 10 Oeste 24 Oeste 0 -- -- 64
2018-01-21 13:00:00 10.9 8 Oeste 23 Oeste 0 -- -- 71
2018-01-21 12:00:00 8 6 Sudoeste 16 Oeste 0 -- -- 79
2018-01-21 11:00:00 4.8 4 Sudoeste 12 Sudoeste 0 -- -- 86
2018-01-21 10:00:00 2.5 2 Sudoeste 9 Sur 0 -- -- 90
2018-01-21 09:00:00 1.6 4 Sur 9 Sudoeste 0 -- -- 88
2018-01-21 08:00:00 2.9 3 Sur 21 Noroeste 0 -- -- 83
2018-01-21 07:00:00 1.7 3 Noroeste 8 Noroeste 0 -- -- 87
2018-01-21 06:00:00 1.9 0 Calma 5 Sudoeste 0 -- -- 87
2018-01-21 05:00:00 2.3 2 Oeste 9 Noroeste 0 -- -- 87
2018-01-21 04:00:00 2.8 3 Oeste 19 Oeste 0 -- -- 86
2018-01-21 03:00:00 3 10 Oeste 19 Oeste 0 -- -- 85
2018-01-21 02:00:00 3.2 8 Oeste 15 Oeste 0 -- -- 82
2018-01-21 01:00:00 3.6 5 Oeste 13 Oeste 0 -- -- 79
2018-01-21 00:00:00 4.6 7 Oeste 12 Oeste 0 -- -- 71
2018-01-20 23:00:00 5.2 3 Sudoeste 11 Noroeste 0 -- -- 68
2018-01-20 22:00:00 7.3 6 Oeste 22 Noroeste 0 -- -- 58
2018-01-20 21:00:00 7.9 11 Noroeste 23 Noroeste 0 -- -- 53
2018-01-20 20:00:00 8.4 6 Noroeste 22 Noroeste 0 -- -- 51
2018-01-20 19:00:00 9.3 12 Noroeste 29 Noroeste 0 -- -- 52
2018-01-20 18:00:00 11.5 17 Noroeste 32 Noroeste 0 -- -- 40
2018-01-20 17:00:00 12.9 19 Noroeste 41 Noroeste 0 -- -- 37
2018-01-20 16:00:00 13 17 Oeste 31 Oeste 0 -- -- 43
2018-01-20 15:00:00 12.3 14 Oeste 28 Oeste 0 -- -- 47
2018-01-20 14:00:00 11.2 14 Oeste 28 Oeste 0 -- -- 60
2018-01-20 13:00:00 10.1 12 Oeste 24 Oeste 0 -- -- 65
2018-01-20 12:00:00 8.2 13 Oeste 27 Oeste 0 -- -- 75
2018-01-20 11:00:00 4.5 4 Sudoeste 14 Sudoeste 0 -- -- 93
2018-01-20 10:00:00 2.1 3 Oeste 6 Oeste 0 -- -- 96
2018-01-20 09:00:00 0.1 0 Calma 4 Oeste 0 -- -- 94
2018-01-20 08:00:00 0.1 0 Calma 4 Noroeste 0 -- -- 92
2018-01-20 07:00:00 0.3 2 Noroeste 4 Noroeste 0 -- -- 91
2018-01-20 06:00:00 0.9 2 Sudoeste 11 Sudoeste 0 -- -- 91
2018-01-20 05:00:00 1.7 2 Sur 11 Norte 0 -- -- 86
2018-01-20 04:00:00 2.5 2 Oeste 13 Sur 0 -- -- 85
2018-01-20 03:00:00 3.1 2 Sur 14 Norte 0 -- -- 85
2018-01-20 02:00:00 3.5 5 Norte 10 Norte 0 -- -- 84
2018-01-20 01:00:00 4.1 0 Calma 10 Norte 0 -- -- 79
2018-01-20 00:00:00 5.5 5 Norte 17 Noroeste 0 -- -- 77
2018-01-19 23:00:00 5.9 7 Norte 15 Norte 0 -- -- 77
2018-01-19 22:00:00 6.3 3 Norte 16 Noroeste 0 -- -- 75
2018-01-19 21:00:00 6.9 5 Noroeste 12 Noroeste 0 -- -- 73
2018-01-19 20:00:00 7.6 6 Noroeste 12 Noroeste 0 -- -- 69
2018-01-19 19:00:00 9.2 5 Noroeste 17 Noroeste 0 -- -- 62
2018-01-19 18:00:00 11.7 13 Noroeste 27 Noroeste 0 -- -- 54
2018-01-19 17:00:00 13.1 9 Noroeste 19 Oeste 0 -- -- 44
2018-01-19 16:00:00 12.9 8 Oeste 18 Oeste 0 -- -- 51
2018-01-19 15:00:00 12.3 6 Sudoeste 15 Sudoeste 0 -- -- 52
2018-01-19 14:00:00 12 6 Sudoeste 15 Sudoeste 0 -- -- 54
2018-01-19 13:00:00 10.3 3 Sudeste 9 Nordeste 0 -- -- 52
2018-01-19 12:00:00 7.5 5 Norte 12 Nordeste 0 -- -- 68
2018-01-19 11:00:00 4.6 3 Este 9 Este 0 -- -- 79
2018-01-19 10:00:00 2.5 3 Este 7 Nordeste 0 -- -- 82
2018-01-19 09:00:00 1.9 3 Este 6 Este 0 -- -- 83
2018-01-19 08:00:00 3 0 Calma 12 Norte 0 -- -- 80
2018-01-19 07:00:00 2.3 4 Nordeste 6 Nordeste 0 -- -- 87
2018-01-19 06:00:00 1.9 0 Calma 5 Norte 0 -- -- 89
2018-01-19 05:00:00 2 0 Calma 5 Sudoeste 0 -- -- 89
2018-01-19 04:00:00 2.4 0 Calma 5 Noroeste 0 -- -- 88
2018-01-19 03:00:00 3 0 Calma 6 Sur 0 -- -- 87
2018-01-19 02:00:00 3.7 0 Calma 8 Norte 0 -- -- 84
2018-01-19 01:00:00 4.7 3 Sur 8 Norte 0 -- -- 81
2018-01-19 00:00:00 5.2 6 Norte 12 Nordeste 0 -- -- 81
2018-01-18 23:00:00 4.4 5 Nordeste 14 Nordeste 0 -- -- 82
2018-01-18 22:00:00 4.3 2 Nordeste 7 Norte 0 -- -- 81
2018-01-18 21:00:00 5.1 0 Calma 6 Norte 0 -- -- 77
2018-01-18 20:00:00 6.6 2 Nordeste 8 Este 0 -- -- 73
2018-01-18 19:00:00 8.2 0 Calma 6 Nordeste 0 -- -- 65
2018-01-18 18:00:00 11.1 5 Este 11 Este 0 -- -- 56
2018-01-18 17:00:00 12.3 8 Nordeste 14 Este 0 -- -- 48
2018-01-18 16:00:00 12.3 6 Este 19 Nordeste 0 -- -- 47
2018-01-18 15:00:00 11.7 9 Este 18 Este 0 -- -- 58
2018-01-18 14:00:00 10.5 9 Este 22 Este 0 -- -- 71
2018-01-18 13:00:00 9.5 12 Sudeste 24 Este 0 -- -- 76
2018-01-18 12:00:00 8.4 12 Sudeste 23 Sudeste 0 -- -- 81
2018-01-18 11:00:00 5.9 10 Este 20 Este 0 -- -- 86
2018-01-18 10:00:00 2.7 5 Este 11 Nordeste 0 -- -- 88
2018-01-18 09:00:00 1.1 4 Nordeste 8 Nordeste 0 -- -- 84
2018-01-18 08:00:00 1.1 4 Nordeste 9 Nordeste 0 -- -- 82
2018-01-18 07:00:00 1.4 3 Este 9 Este 0 -- -- 80
2018-01-18 06:00:00 1.5 5 Este 12 Este 0 -- -- 79
2018-01-18 05:00:00 2.2 4 Este 8 Nordeste 0 -- -- 77
2018-01-18 04:00:00 2.8 3 Nordeste 12 Nordeste 0 -- -- 78
2018-01-18 03:00:00 2.7 4 Nordeste 10 Este 0 -- -- 79
2018-01-18 02:00:00 3.5 4 Norte 14 Nordeste 0 -- -- 79
2018-01-18 01:00:00 3.2 3 Norte 14 Norte 0 -- -- 79
2018-01-18 00:00:00 4.4 3 Norte 10 Nordeste 0 -- -- 77
2018-01-17 23:00:00 5.6 4 Nordeste 16 Norte 0 -- -- 73
2018-01-17 22:00:00 6.1 5 Nordeste 20 Norte 0 -- -- 71
2018-01-17 21:00:00 6.8 9 Norte 23 Noroeste 0 -- -- 67
2018-01-17 20:00:00 7.7 12 Norte 25 Norte 0 -- -- 64
2018-01-17 19:00:00 8.7 12 Norte 20 Norte 0 -- -- 60
2018-01-17 18:00:00 10.5 8 Norte 25 Norte 0 -- -- 53
2018-01-17 17:00:00 12.1 11 Norte 23 Norte 0 -- -- 45
2018-01-17 16:00:00 12.2 11 Norte 23 Noroeste 0 -- -- 54
2018-01-17 15:00:00 11.9 10 Norte 27 Noroeste 0 -- -- 59
2018-01-17 14:00:00 11.3 12 Noroeste 23 Noroeste 0 -- -- 66
2018-01-17 13:00:00 9 10 Norte 21 Norte 0 -- -- 91
2018-01-17 12:00:00 6.3 9 Noroeste 19 Noroeste 0 -- -- 99
2018-01-17 11:00:00 4.1 3 Oeste 13 Noroeste 0 -- -- 99
2018-01-17 10:00:00 3.3 6 Noroeste 14 Noroeste 0.2 -- -- 98
2018-01-17 09:00:00 3.6 5 Noroeste 13 Noroeste 0 -- -- 98
2018-01-17 08:00:00 3.6 8 Noroeste 15 Noroeste 0 -- -- 97
2018-01-17 07:00:00 3.9 4 Oeste 10 Oeste 0 -- -- 97
2018-01-17 06:00:00 4.5 4 Oeste 17 Oeste 0 -- -- 97
2018-01-17 05:00:00 5.1 4 Noroeste 13 Oeste 0 -- -- 97
2018-01-17 04:00:00 5.3 4 Oeste 10 Noroeste 0 -- -- 96
2018-01-17 03:00:00 5.1 0 Calma 12 Noroeste 0 -- -- 95
2018-01-17 02:00:00 5.1 5 Oeste 15 Oeste 0 -- -- 96
2018-01-17 01:00:00 2 2 Oeste 4 Oeste 0 -- -- 93
2018-01-17 00:00:00 2.9 0 Calma 8 Oeste 0 -- -- 92
2018-01-16 23:00:00 4.1 3 Oeste 9 Sudoeste 0 -- -- 91
2018-01-16 22:00:00 5 5 Oeste 15 Oeste 0 -- -- 89
2018-01-16 21:00:00 5.2 7 Oeste 15 Oeste 0 -- -- 89
2018-01-16 20:00:00 6 5 Oeste 11 Oeste 0 -- -- 86
2018-01-16 19:00:00 6.8 5 Oeste 13 Oeste 0 -- -- 82
2018-01-16 18:00:00 8.7 8 Oeste 24 Sudoeste 0 -- -- 78
2018-01-16 17:00:00 9.6 12 Oeste 26 Oeste 0 -- -- 75
2018-01-16 16:00:00 9.8 12 Oeste 27 Oeste 0 -- -- 73
2018-01-16 15:00:00 9.1 12 Oeste 22 Oeste 0 -- -- 73
2018-01-16 14:00:00 8.3 9 Oeste 21 Sudoeste 0 -- -- 74
2018-01-16 13:00:00 6.9 10 Oeste 20 Oeste 0 -- -- 77
2018-01-16 12:00:00 5.2 9 Oeste 26 Oeste 0 -- -- 85
2018-01-16 11:00:00 3.2 10 Oeste 19 Oeste 0 -- -- 92
2018-01-16 10:00:00 2.1 8 Oeste 17 Oeste 0 -- -- 95
2018-01-16 09:00:00 1.2 8 Oeste 20 Oeste 0 -- -- 96
2018-01-16 08:00:00 0.7 8 Oeste 18 Oeste 0 -- -- 96
2018-01-16 07:00:00 -0.1 6 Oeste 14 Oeste 0 -- -- 96
2018-01-16 06:00:00 -0.3 5 Oeste 11 Oeste 0 -- -- 96
2018-01-16 05:00:00 -0.1 2 Oeste 16 Oeste 0 -- -- 95
2018-01-16 04:00:00 0.1 6 Oeste 14 Noroeste 0 -- -- 94
2018-01-16 03:00:00 0.3 0 Calma 8 Sudoeste 0 -- -- 93
2018-01-16 02:00:00 0.4 3 Oeste 7 Sudoeste 0 -- -- 91
2018-01-16 01:00:00 0.8 4 Oeste 9 Noroeste 0 -- -- 90
2018-01-16 00:00:00 1.1 3 Oeste 10 Oeste 0 -- -- 87
2018-01-15 23:00:00 2.3 10 Noroeste 15 Noroeste 0 -- -- 86
2018-01-15 22:00:00 2.6 4 Noroeste 15 Noroeste 0 -- -- 85
2018-01-15 21:00:00 3.2 7 Noroeste 15 Noroeste 0 -- -- 82
2018-01-15 20:00:00 3.9 6 Noroeste 16 Noroeste 0 -- -- 81
2018-01-15 19:00:00 4.8 7 Noroeste 13 Oeste 0 -- -- 77
2018-01-15 18:00:00 6.3 4 Sudoeste 18 Sudoeste 0 -- -- 76
2018-01-15 17:00:00 7.5 6 Oeste 18 Oeste 0 -- -- 66
2018-01-15 16:00:00 7.8 8 Oeste 16 Oeste 0 -- -- 65
2018-01-15 15:00:00 7.2 4 Sudoeste 14 Oeste 0 -- -- 71
2018-01-15 14:00:00 6.6 5 Sudoeste 16 Oeste 0 -- -- 75
2018-01-15 13:00:00 6 5 Oeste 12 Oeste 0 -- -- 75
2018-01-15 12:00:00 4.8 4 Nordeste 8 Nordeste 0 -- -- 76
2018-01-15 11:00:00 2.2 2 Nordeste 8 Nordeste 0 -- -- 86
2018-01-15 10:00:00 0.3 0 Calma 8 Nordeste 0 -- -- 90
2018-01-15 09:00:00 -0.8 0 Calma 8 Norte 0 -- -- 89
2018-01-15 08:00:00 -0.3 3 Norte 11 Norte 0 -- -- 87
2018-01-15 07:00:00 -0.1 3 Norte 9 Nordeste 0 -- -- 86
2018-01-15 06:00:00 0 4 Nordeste 14 Norte 0 -- -- 86
2018-01-15 05:00:00 0.2 4 Norte 8 Norte 0 -- -- 86
2018-01-15 04:00:00 0.3 3 Nordeste 9 Nordeste 0 -- -- 86
2018-01-15 03:00:00 0.4 4 Nordeste 17 Norte 0 -- -- 86
2018-01-15 02:00:00 0.8 8 Norte 16 Norte 0 -- -- 85
2018-01-15 01:00:00 1.2 4 Norte 10 Nordeste 0 -- -- 84
2018-01-15 00:00:00 1.1 4 Norte 11 Norte 0 -- -- 86
2018-01-14 23:00:00 1.4 4 Norte 15 Norte 0 -- -- 86
2018-01-14 22:00:00 2.1 8 Norte 15 Norte 0 -- -- 84
2018-01-14 21:00:00 2.2 8 Norte 17 Norte 0 -- -- 86
2018-01-14 20:00:00 2.8 6 Norte 12 Norte 0 -- -- 86
2018-01-14 19:00:00 3.5 4 Norte 8 Norte 0 -- -- 83
2018-01-14 18:00:00 4.5 4 Norte 16 Norte 0 -- -- 78
2018-01-14 17:00:00 5.5 5 Norte 16 Noroeste 0 -- -- 75
2018-01-14 16:00:00 5.6 7 Norte 18 Noroeste 0 -- -- 76
2018-01-14 15:00:00 5.8 9 Noroeste 19 Noroeste 0 -- -- 74
2018-01-14 14:00:00 5.7 8 Noroeste 18 Noroeste 0 -- -- 78
2018-01-14 13:00:00 5.7 7 Oeste 19 Oeste 0 -- -- 78
2018-01-14 12:00:00 4.8 8 Oeste 16 Oeste 0 -- -- 95
2018-01-14 11:00:00 3.8 4 Oeste 12 Oeste 0 -- -- 97
2018-01-14 10:00:00 3 5 Oeste 19 Oeste 0.2 -- -- 97
2018-01-14 09:00:00 2.5 7 Oeste 17 Oeste 0 -- -- 97
2018-01-14 08:00:00 2.6 8 Oeste 16 Oeste 0 -- -- 96
2018-01-14 07:00:00 2.6 8 Oeste 18 Oeste 0.2 -- -- 96
2018-01-14 06:00:00 2.3 8 Oeste 18 Oeste 0 -- -- 95
2018-01-14 05:00:00 2.3 6 Oeste 15 Oeste 0 -- -- 95
2018-01-14 04:00:00 2.2 8 Oeste 17 Noroeste 0 -- -- 95
2018-01-14 03:00:00 2.2 7 Oeste 19 Noroeste 0 -- -- 94
2018-01-14 02:00:00 2.1 12 Oeste 22 Noroeste 0 -- -- 94
2018-01-14 01:00:00 1.7 9 Oeste 24 Noroeste 0 -- -- 94
2018-01-14 00:00:00 2.1 18 Noroeste 29 Noroeste 0 -- -- 93
2018-01-13 23:00:00 3.2 15 Noroeste 33 Oeste 0 -- -- 95
2018-01-13 22:00:00 4.4 14 Oeste 28 Oeste 0 -- -- 96
2018-01-13 21:00:00 4.7 14 Oeste 32 Oeste 0.4 -- -- 96
2018-01-13 20:00:00 4.4 15 Oeste 30 Sudoeste 0.4 -- -- 95
2018-01-13 19:00:00 4.1 8 Sudoeste 16 Sudoeste 0.6 -- -- 92
2018-01-13 18:00:00 4.3 3 Sudoeste 13 Sudoeste 0.2 -- -- 88
2018-01-13 17:00:00 4.9 7 Sudoeste 29 Oeste 0 -- -- 80
2018-01-13 16:00:00 7.1 16 Oeste 41 Oeste 0 -- -- 55
2018-01-13 15:00:00 7.5 10 Sudoeste 22 Sudoeste 0 -- -- 63
2018-01-13 14:00:00 6.1 5 Sudoeste 12 Sur 0 -- -- 73
2018-01-13 13:00:00 4.8 5 Sur 11 Sudeste 0 -- -- 80
2018-01-13 12:00:00 2.8 4 Sudeste 9 Este 0 -- -- 90
2018-01-13 11:00:00 1.7 3 Nordeste 9 Este 0 -- -- 92
2018-01-13 10:00:00 0.6 2 Este 8 Este 0 -- -- 94
2018-01-13 09:00:00 0 2 Este 9 Este 0 -- -- 95
2018-01-13 08:00:00 0 3 Este 7 Nordeste 0 -- -- 95
2018-01-13 07:00:00 0 0 Calma 5 Este 0 -- -- 94
2018-01-13 06:00:00 0 0 Calma 8 Este 0 -- -- 94
2018-01-13 05:00:00 0.1 0 Calma 5 Nordeste 0 -- -- 93
2018-01-13 04:00:00 0.5 0 Calma 4 Nordeste 0 -- -- 94
2018-01-13 03:00:00 0.3 0 Calma 8 Este 0 -- -- 93
2018-01-13 02:00:00 0.5 2 Nordeste 5 Nordeste 0 -- -- 93
2018-01-13 01:00:00 0.8 0 Calma 5 Oeste 0 -- -- 92
2018-01-13 00:00:00 0.8 0 Calma 5 Oeste 0 -- -- 91
2018-01-12 23:00:00 1.3 0 Calma 3 Nordeste 0 -- -- 89
2018-01-12 22:00:00 2 0 Calma 4 Este 0 -- -- 89
2018-01-12 21:00:00 2.7 0 Calma 6 Noroeste 0 -- -- 86
2018-01-12 20:00:00 3.4 4 Noroeste 15 Noroeste 0 -- -- 85
2018-01-12 19:00:00 4.1 4 Noroeste 12 Oeste 0 -- -- 84
2018-01-12 18:00:00 5.2 5 Oeste 11 Oeste 0 -- -- 81
2018-01-12 17:00:00 6.1 6 Oeste 17 Oeste 0 -- -- 78
2018-01-12 16:00:00 6.9 8 Oeste 23 Sudoeste 0 -- -- 76
2018-01-12 15:00:00 7.7 12 Oeste 22 Oeste 0 -- -- 71
2018-01-12 14:00:00 7.3 7 Noroeste 21 Noroeste 0 -- -- 67
2018-01-12 13:00:00 6 10 Noroeste 18 Noroeste 0 -- -- 72
2018-01-12 12:00:00 4.7 7 Noroeste 17 Noroeste 0 -- -- 77
2018-01-12 11:00:00 2.9 7 Noroeste 13 Norte 0 -- -- 82
2018-01-12 10:00:00 1 4 Noroeste 9 Norte 0 -- -- 88
2018-01-12 09:00:00 -0.3 5 Noroeste 13 Noroeste 0 -- -- 88
2018-01-12 08:00:00 -0.3 7 Noroeste 17 Norte 0 -- -- 88
2018-01-12 07:00:00 -0.1 5 Noroeste 17 Norte 0 -- -- 87
2018-01-12 06:00:00 0 5 Noroeste 15 Noroeste 0 -- -- 87
2018-01-12 05:00:00 0.1 7 Noroeste 15 Noroeste 0 -- -- 87
2018-01-12 04:00:00 0.5 8 Noroeste 15 Noroeste 0 -- -- 86
2018-01-12 03:00:00 0 7 Noroeste 13 Noroeste 0 -- -- 90
2018-01-12 02:00:00 -0.1 4 Sudoeste 14 Oeste 0 -- -- 86
2018-01-12 01:00:00 0.7 4 Sudoeste 21 Oeste 0 -- -- 82
2018-01-12 00:00:00 1.7 9 Oeste 29 Noroeste 0 -- -- 79
2018-01-11 23:00:00 1.9 14 Noroeste 28 Noroeste 0 -- -- 79
2018-01-11 22:00:00 2.1 17 Noroeste 26 Noroeste 0 -- -- 78
2018-01-11 21:00:00 2.6 13 Noroeste 28 Noroeste 0 -- -- 76
2018-01-11 20:00:00 3.2 16 Noroeste 23 Noroeste 0 -- -- 74
2018-01-11 19:00:00 3.7 12 Noroeste 22 Noroeste 0 -- -- 74
2018-01-11 18:00:00 5 10 Noroeste 37 Noroeste 0 -- -- 69
2018-01-11 17:00:00 5.8 21 Noroeste 39 Noroeste 0 -- -- 66
2018-01-11 16:00:00 6.3 23 Noroeste 43 Oeste 0 -- -- 68
2018-01-11 15:00:00 6.3 24 Noroeste 44 Noroeste 0 -- -- 72
2018-01-11 14:00:00 5.4 23 Noroeste 41 Noroeste 0 -- -- 78
2018-01-11 13:00:00 5.2 19 Noroeste 43 Noroeste 0 -- -- 82
2018-01-11 12:00:00 4.2 15 Oeste 32 Oeste 0 -- -- 97
2018-01-11 11:00:00 2.5 13 Oeste 26 Oeste 0 -- -- 98
2018-01-11 10:00:00 1.7 15 Oeste 30 Sudoeste 0.2 -- -- 98
2018-01-11 09:00:00 1.2 16 Oeste 31 Oeste 0.2 -- -- 97
2018-01-11 08:00:00 1.4 13 Oeste 27 Oeste 0 -- -- 97
2018-01-11 07:00:00 1.4 9 Oeste 23 Oeste 0 -- -- 96
2018-01-11 06:00:00 1.4 4 Sudoeste 10 Sudoeste 0 -- -- 95
2018-01-11 05:00:00 1.4 4 Oeste 12 Oeste 0 -- -- 94
2018-01-11 04:00:00 2.1 5 Oeste 19 Noroeste 0 -- -- 93
2018-01-11 03:00:00 3.2 10 Oeste 21 Noroeste 0 -- -- 93
2018-01-11 02:00:00 3.4 8 Oeste 26 Noroeste 0 -- -- 93
2018-01-11 01:00:00 3.7 9 Noroeste 22 Noroeste 0 -- -- 92
2018-01-11 00:00:00 5.1 10 Noroeste 33 Noroeste 0 -- -- 93
2018-01-10 23:00:00 5.6 19 Noroeste 35 Noroeste 0 -- -- 93
2018-01-10 22:00:00 5.8 21 Noroeste 40 Noroeste 0.2 -- -- 95
2018-01-10 21:00:00 6.4 16 Oeste 31 Oeste 0.8 -- -- 96
2018-01-10 20:00:00 6.1 10 Oeste 23 Oeste 2.8 -- -- 95
2018-01-10 19:00:00 6.2 11 Oeste 24 Oeste 1.2 -- -- 92
2018-01-10 18:00:00 6.9 13 Oeste 36 Oeste 0 -- -- 86
2018-01-10 17:00:00 7.5 16 Oeste 38 Oeste 0 -- -- 80
2018-01-10 16:00:00 8.2 19 Oeste 41 Oeste 0 -- -- 81
2018-01-10 15:00:00 7.8 15 Oeste 36 Oeste 0 -- -- 85
2018-01-10 14:00:00 6.9 16 Oeste 37 Oeste 0 -- -- 94
2018-01-10 13:00:00 5.9 12 Oeste 26 Oeste 0 -- -- 97
2018-01-10 12:00:00 5.5 15 Oeste 32 Oeste 0 -- -- 97
2018-01-10 11:00:00 5.1 12 Oeste 22 Noroeste 0 -- -- 98
2018-01-10 10:00:00 4.9 9 Oeste 19 Noroeste 0 -- -- 99
2018-01-10 09:00:00 4.5 8 Oeste 15 Oeste 0.2 -- -- 98
2018-01-10 08:00:00 4.2 4 Oeste 10 Sudoeste 0.2 -- -- 98
2018-01-10 07:00:00 3.8 2 Oeste 5 Oeste 0 -- -- 98
2018-01-10 06:00:00 3.6 0 Calma 2 Oeste 0.2 -- -- 98
2018-01-10 05:00:00 3.4 0 Calma 3 Este 0.2 -- -- 98
2018-01-10 04:00:00 3.4 0 Calma 4 Nordeste 0.8 -- -- 97
2018-01-10 03:00:00 3.2 0 Calma 3 Nordeste 0.4 -- -- 97
2018-01-10 02:00:00 3.3 0 Calma 3 Este 0.8 -- -- 97
2018-01-10 01:00:00 3.2 0 Calma 4 Este 1.2 -- -- 97
2018-01-10 00:00:00 3 0 Calma 6 Este 1 -- -- 96
2018-01-09 23:00:00 3.1 2 Este 6 Sur 0.4 -- -- 96
2018-01-09 22:00:00 3 2 Sur 5 Sur 0 -- -- 95
2018-01-09 21:00:00 2.9 0 Calma 4 Sudoeste 0.2 -- -- 93
2018-01-09 20:00:00 2.9 0 Calma 4 Sudoeste 0 -- -- 92
2018-01-09 19:00:00 3.1 2 Sudoeste 6 Sudoeste 0 -- -- 91
2018-01-09 18:00:00 3.5 3 Sudoeste 13 Sudoeste 0 -- -- 88
2018-01-09 17:00:00 3.9 4 Sudoeste 13 Oeste 0 -- -- 88
2018-01-09 16:00:00 3.9 6 Oeste 19 Oeste 0 -- -- 86
2018-01-09 15:00:00 3.5 8 Oeste 21 Oeste 0 -- -- 88
2018-01-09 14:00:00 2.3 6 Oeste 14 Oeste 0 -- -- 92
2018-01-09 13:00:00 1.3 5 Oeste 10 Oeste 0 -- -- 95
2018-01-09 12:00:00 0.4 4 Oeste 11 Oeste 0.2 -- -- 96
2018-01-09 11:00:00 0.1 0 Calma 8 Oeste 0 -- -- 97
2018-01-09 10:00:00 -1.3 2 Oeste 5 Oeste 0 -- -- 97
2018-01-09 09:00:00 -3.3 0 Calma 3 Oeste 0 -- -- 96
2018-01-09 08:00:00 -3.6 0 Calma 2 Este 0 -- -- 95
2018-01-09 07:00:00 -3.2 0 Calma 2 Nordeste 0 -- -- 95
2018-01-09 06:00:00 -2.8 0 Calma 4 Sudoeste 0 -- -- 95
2018-01-09 05:00:00 -2.3 0 Calma 3 Oeste 0 -- -- 95
2018-01-09 04:00:00 -2.1 0 Calma 4 Oeste 0 -- -- 93
2018-01-09 03:00:00 -1.7 0 Calma 4 Sur 0 -- -- 92
2018-01-09 02:00:00 -0.6 0 Calma 6 Norte 0 -- -- 92
2018-01-09 01:00:00 0.1 3 Norte 12 Noroeste 0 -- -- 92
2018-01-09 00:00:00 0 0 Calma 6 Noroeste 0 -- -- 93
2018-01-08 23:00:00 -0.1 0 Calma 5 Norte 0 -- -- 91
2018-01-08 22:00:00 0.6 2 Norte 7 Norte 0 -- -- 92
2018-01-08 21:00:00 0.6 3 Noroeste 5 Norte 0 -- -- 91
2018-01-08 20:00:00 0.8 0 Calma 5 Noroeste 0 -- -- 90
2018-01-08 19:00:00 1.7 0 Calma 5 Oeste 0 -- -- 88
2018-01-08 18:00:00 3 0 Calma 5 Oeste 0 -- -- 85
2018-01-08 17:00:00 4.3 0 Calma 8 Oeste 0 -- -- 79
2018-01-08 16:00:00 5 3 Sudoeste 8 Sudoeste 0.4 -- -- 79
2018-01-08 15:00:00 4.6 0 Calma 9 Sudeste 1.2 -- -- 77
2018-01-08 14:00:00 4.1 3 Sudeste 9 Este 1 -- -- 80
2018-01-08 13:00:00 3.4 3 Sudeste 10 Este 0 -- -- 88
2018-01-08 12:00:00 2.7 2 Sur 8 Este 0 -- -- 93
2018-01-08 11:00:00 1.2 4 Este 8 Este 0 -- -- 95
2018-01-08 10:00:00 -0.2 2 Este 6 Este 0 -- -- 96
2018-01-08 09:00:00 -1.4 2 Nordeste 3 Nordeste 0 -- -- 95
2018-01-08 08:00:00 -1.3 0 Calma 4 Nordeste 0 -- -- 94
2018-01-08 07:00:00 -1 0 Calma 4 Nordeste 0 -- -- 94
2018-01-08 06:00:00 -0.4 0 Calma 3 Este 0 -- -- 94
2018-01-08 05:00:00 0.1 2 Este 6 Nordeste 0 -- -- 94
2018-01-08 04:00:00 -0.1 3 Este 7 Nordeste 0 -- -- 94
2018-01-08 03:00:00 0.2 4 Nordeste 7 Nordeste 0 -- -- 93
2018-01-08 02:00:00 0.1 3 Nordeste 6 Nordeste 0 -- -- 93
2018-01-08 01:00:00 0.1 3 Este 5 Este 0 -- -- 94
2018-01-08 00:00:00 0.1 2 Nordeste 6 Norte 0 -- -- 94
2018-01-07 23:00:00 0.5 0 Calma 9 Norte 0 -- -- 94
2018-01-07 22:00:00 0.6 5 Norte 10 Norte 0 -- -- 94
2018-01-07 21:00:00 0.4 3 Noroeste 15 Oeste 0 -- -- 94
2018-01-07 20:00:00 1 4 Sudoeste 11 Sudoeste 0 -- -- 91
2018-01-07 19:00:00 2.3 6 Sudoeste 15 Sudoeste 0 -- -- 83
2018-01-07 18:00:00 3.1 2 Este 8 Sur 0 -- -- 79
2018-01-07 17:00:00 3.7 5 Sur 13 Sur 0 -- -- 71
2018-01-07 16:00:00 3.5 6 Sur 17 Sudoeste 0 -- -- 77
2018-01-07 15:00:00 2.8 8 Sur 19 Sur 0 -- -- 81
2018-01-07 14:00:00 3.1 8 Sur 20 Sur 0 -- -- 84
2018-01-07 13:00:00 2.8 8 Sur 19 Sur 0.8 -- -- 92
2018-01-07 12:00:00 2 8 Sudoeste 26 Sudoeste 1 -- -- 97
2018-01-07 11:00:00 0.9 10 Sur 22 Sur 0.4 -- -- 98
2018-01-07 10:00:00 0.7 8 Sudoeste 19 Sudoeste 0 -- -- 98
2018-01-07 09:00:00 0.5 7 Sudoeste 22 Sur 0 -- -- 98
2018-01-07 08:00:00 0.3 6 Sudoeste 14 Sur 0 -- -- 98
2018-01-07 07:00:00 0.3 7 Oeste 16 Oeste 0.4 -- -- 97
2018-01-07 06:00:00 0.7 4 Sudoeste 19 Sudoeste 0.4 -- -- 98
2018-01-07 05:00:00 0.8 8 Oeste 21 Oeste 0.2 -- -- 97
2018-01-07 04:00:00 0.8 10 Oeste 23 Oeste 0.4 -- -- 97
2018-01-07 03:00:00 0.7 8 Oeste 19 Oeste 0.4 -- -- 97
2018-01-07 02:00:00 1.3 8 Oeste 24 Oeste 0.2 -- -- 97
2018-01-07 01:00:00 1.4 8 Oeste 19 Oeste 0 -- -- 97
2018-01-07 00:00:00 1.5 10 Oeste 26 Oeste 0 -- -- 97
2018-01-06 23:00:00 1.3 12 Oeste 31 Oeste 0 -- -- 97
2018-01-06 22:00:00 1.5 12 Oeste 30 Oeste 0 -- -- 96
2018-01-06 21:00:00 1.7 15 Oeste 35 Oeste 0.2 -- -- 96
2018-01-06 20:00:00 1.8 12 Oeste 28 Oeste 0.4 -- -- 96
2018-01-06 19:00:00 0.7 5 Sudoeste 23 Oeste 0.4 -- -- 96
2018-01-06 18:00:00 0.8 9 Oeste 25 Oeste 0.8 -- -- 94
2018-01-06 17:00:00 3 14 Oeste 25 Oeste 1.2 -- -- 92
2018-01-06 16:00:00 4.8 13 Oeste 30 Oeste 1.4 -- -- 89
2018-01-06 15:00:00 7.2 10 Sudeste 19 Sudeste 0.2 -- -- 83
2018-01-06 14:00:00 7.3 8 Sudeste 15 Sur 0 -- -- 80
2018-01-06 13:00:00 6.9 4 Sudeste 14 Sudeste 0 -- -- 81
2018-01-06 12:00:00 6.7 7 Sur 13 Sur 0 -- -- 83
2018-01-06 11:00:00 6.3 5 Sur 24 Sudeste 0 -- -- 84
2018-01-06 10:00:00 6.1 13 Sudeste 27 Sudeste 0 -- -- 82
2018-01-06 09:00:00 5.8 17 Sudeste 28 Sudeste 0 -- -- 82
2018-01-06 08:00:00 5.6 16 Sudeste 28 Sudeste 0 -- -- 81
2018-01-06 07:00:00 5.5 4 Este 11 Sudeste 0 -- -- 88
2018-01-06 06:00:00 6.2 4 Este 8 Este 0 -- -- 88
2018-01-06 05:00:00 6.7 5 Oeste 23 Sur 0 -- -- 84
2018-01-06 04:00:00 7.4 13 Sudeste 32 Sudeste 0 -- -- 79
2018-01-06 03:00:00 7.7 8 Sur 22 Sudeste 0 -- -- 80
2018-01-06 02:00:00 7.4 8 Sur 19 Sur 0 -- -- 82
2018-01-06 01:00:00 7.7 7 Sur 21 Sur 0 -- -- 83
2018-01-06 00:00:00 8 9 Sudoeste 22 Sudoeste 0 -- -- 83
2018-01-05 23:00:00 7.7 11 Sudoeste 22 Sudoeste 0 -- -- 87
2018-01-05 22:00:00 6.5 4 Sudoeste 13 Sudoeste 0 -- -- 89
2018-01-05 21:00:00 7.1 8 Sudoeste 19 Sudoeste 0 -- -- 84
2018-01-05 20:00:00 8 9 Sudoeste 22 Sudoeste 0 -- -- 82
2018-01-05 19:00:00 8.6 8 Sudoeste 24 Sudoeste 0 -- -- 78
2018-01-05 18:00:00 9.2 9 Sudoeste 27 Sudoeste 0 -- -- 73
2018-01-05 17:00:00 9.9 10 Sudoeste 30 Oeste 0 -- -- 70
2018-01-05 16:00:00 10.2 10 Sudoeste 28 Oeste 0 -- -- 72
2018-01-05 15:00:00 9.3 15 Oeste 37 Oeste 0 -- -- 72
2018-01-05 14:00:00 10 22 Oeste 39 Oeste 0 -- -- 70
2018-01-05 13:00:00 8.8 18 Oeste 39 Sudoeste 0 -- -- 80
2018-01-05 12:00:00 8.7 15 Oeste 34 Oeste 0 -- -- 82
2018-01-05 11:00:00 8.2 13 Oeste 25 Oeste 0 -- -- 89
2018-01-05 10:00:00 7.9 15 Oeste 27 Oeste 0 -- -- 90
2018-01-05 09:00:00 7.6 11 Oeste 28 Oeste 0 -- -- 89
2018-01-05 08:00:00 7.7 12 Oeste 24 Oeste 0 -- -- 89
2018-01-05 07:00:00 7.8 10 Oeste 22 Oeste 0 -- -- 88
2018-01-05 06:00:00 7.8 10 Oeste 23 Oeste 0 -- -- 90
2018-01-05 05:00:00 8.1 9 Oeste 23 Oeste 0 -- -- 88
2018-01-05 04:00:00 8.2 9 Oeste 19 Oeste 0 -- -- 89
2018-01-05 03:00:00 8.3 10 Oeste 22 Oeste 0 -- -- 91
2018-01-05 02:00:00 8.5 11 Oeste 26 Oeste 0 -- -- 93
2018-01-05 01:00:00 8.5 14 Oeste 27 Oeste 0 -- -- 93
2018-01-05 00:00:00 8.7 11 Oeste 22 Oeste 0 -- -- 95
2018-01-04 23:00:00 8.6 9 Oeste 18 Oeste 0 -- -- 95
2018-01-04 22:00:00 8.8 11 Oeste 23 Oeste 0 -- -- 95
2018-01-04 21:00:00 9.1 10 Oeste 24 Oeste 0 -- -- 95
2018-01-04 20:00:00 9.4 10 Oeste 27 Oeste 0 -- -- 93
2018-01-04 19:00:00 10.2 14 Oeste 28 Oeste 0 -- -- 92
2018-01-04 18:00:00 10.6 14 Oeste 29 Oeste 0 -- -- 91
2018-01-04 17:00:00 11.1 12 Oeste 22 Oeste 0 -- -- 91
2018-01-04 16:00:00 10.9 10 Oeste 20 Sudoeste 0 -- -- 96
2018-01-04 15:00:00 10.1 9 Oeste 21 Oeste 0 -- -- 98
2018-01-04 14:00:00 10 11 Oeste 23 Oeste 0 -- -- 99
2018-01-04 13:00:00 9.8 12 Oeste 23 Oeste 0 -- -- 99
2018-01-04 12:00:00 9.2 10 Oeste 25 Oeste 0 -- -- 99
2018-01-04 11:00:00 8.9 12 Oeste 22 Oeste 0 -- -- 99
2018-01-04 10:00:00 8.6 6 Oeste 14 Oeste 0.2 -- -- 99
2018-01-04 09:00:00 8.4 7 Oeste 18 Oeste 0 -- -- 99
2018-01-04 08:00:00 8.3 5 Oeste 15 Sudoeste 0 -- -- 99
2018-01-04 07:00:00 8.3 9 Oeste 21 Oeste 0 -- -- 99
2018-01-04 06:00:00 8.3 7 Oeste 21 Oeste 0 -- -- 99
2018-01-04 05:00:00 8.3 5 Oeste 15 Oeste 0 -- -- 98
2018-01-04 04:00:00 8.4 5 Oeste 19 Oeste 0 -- -- 98
2018-01-04 03:00:00 8.4 9 Oeste 19 Oeste 0 -- -- 98
2018-01-04 02:00:00 8.4 5 Sudoeste 12 Sudoeste 0 -- -- 98
2018-01-04 01:00:00 8.9 8 Oeste 19 Noroeste 0 -- -- 97
2018-01-04 00:00:00 8.6 5 Oeste 14 Oeste 0 -- -- 97
2018-01-03 23:00:00 8.3 6 Oeste 17 Oeste 0 -- -- 96
2018-01-03 22:00:00 8.6 8 Oeste 22 Oeste 0 -- -- 96
2018-01-03 21:00:00 9 9 Oeste 24 Oeste 0 -- -- 95
2018-01-03 20:00:00 9.4 13 Oeste 27 Oeste 0 -- -- 94
2018-01-03 19:00:00 9.5 4 Noroeste 9 Noroeste 0 -- -- 93
2018-01-03 18:00:00 9.7 6 Oeste 16 Noroeste 0 -- -- 93
2018-01-03 17:00:00 10.1 6 Oeste 19 Oeste 0 -- -- 95
2018-01-03 16:00:00 10.1 7 Oeste 23 Oeste 0 -- -- 98
2018-01-03 15:00:00 9.7 9 Noroeste 21 Noroeste 0 -- -- 99
2018-01-03 14:00:00 9 9 Oeste 21 Noroeste 0 -- -- 99
2018-01-03 13:00:00 8.6 12 Noroeste 20 Oeste 0 -- -- 99
2018-01-03 12:00:00 8.3 10 Oeste 26 Oeste 0 -- -- 99
2018-01-03 11:00:00 8.2 10 Oeste 26 Oeste 0 -- -- 99
2018-01-03 10:00:00 7.7 7 Oeste 14 Sudoeste 0 -- -- 99
2018-01-03 09:00:00 7.1 3 Sudoeste 10 Sudoeste 0.2 -- -- 99
2018-01-03 08:00:00 7 3 Sudoeste 17 Oeste 0 -- -- 98
2018-01-03 07:00:00 6.8 8 Oeste 15 Oeste 0 -- -- 98
2018-01-03 06:00:00 6.6 4 Oeste 9 Sudoeste 0.2 -- -- 98
2018-01-03 05:00:00 6.1 2 Sudoeste 13 Oeste 0 -- -- 98
2018-01-03 04:00:00 5.9 5 Oeste 17 Oeste 0 -- -- 98
2018-01-03 03:00:00 5.7 9 Oeste 19 Noroeste 0 -- -- 98
2018-01-03 02:00:00 5.4 6 Oeste 21 Oeste 0 -- -- 97
2018-01-03 01:00:00 5.2 12 Oeste 24 Oeste 0 -- -- 97
2018-01-03 00:00:00 5.1 5 Oeste 17 Oeste 0 -- -- 96
2018-01-02 23:00:00 5.1 4 Sudoeste 16 Oeste 0 -- -- 94
2018-01-02 22:00:00 6 7 Oeste 15 Oeste 0 -- -- 93
2018-01-02 21:00:00 5.8 12 Oeste 22 Oeste 0 -- -- 92
2018-01-02 20:00:00 6.1 7 Oeste 18 Oeste 0 -- -- 91
2018-01-02 19:00:00 6.7 3 Sudoeste 12 Oeste 0 -- -- 87
2018-01-02 18:00:00 8.2 5 Sudoeste 24 Oeste 0 -- -- 82
2018-01-02 17:00:00 9.3 11 Oeste 27 Oeste 0 -- -- 79
2018-01-02 16:00:00 9.7 14 Oeste 32 Oeste 0 -- -- 76
2018-01-02 15:00:00 9.6 13 Oeste 27 Oeste 0 -- -- 79
2018-01-02 14:00:00 9.3 14 Oeste 32 Oeste 0 -- -- 82
2018-01-02 13:00:00 8.3 15 Oeste 32 Oeste 0 -- -- 90
2018-01-02 12:00:00 6.5 18 Oeste 31 Oeste 0 -- -- 97
2018-01-02 11:00:00 5.2 14 Oeste 26 Oeste 0 -- -- 98
2018-01-02 10:00:00 4.4 15 Oeste 30 Oeste 0 -- -- 98
2018-01-02 09:00:00 4 12 Oeste 29 Oeste 0 -- -- 97
2018-01-02 08:00:00 4.1 14 Oeste 34 Oeste 0 -- -- 97
2018-01-02 07:00:00 4.3 9 Oeste 21 Oeste 0 -- -- 96
2018-01-02 06:00:00 4.3 12 Oeste 28 Oeste 0 -- -- 95
2018-01-02 05:00:00 5.2 12 Oeste 40 Noroeste 0 -- -- 94
2018-01-02 04:00:00 5.7 19 Noroeste 35 Noroeste 0 -- -- 95
2018-01-02 03:00:00 5.3 10 Oeste 31 Noroeste 0 -- -- 95
2018-01-02 02:00:00 5 11 Noroeste 24 Noroeste 0 -- -- 95
2018-01-02 01:00:00 3.7 10 Oeste 20 Oeste 0 -- -- 95
2018-01-02 00:00:00 3.6 12 Oeste 25 Oeste 0 -- -- 93
2018-01-01 23:00:00 3.7 12 Oeste 26 Oeste 0 -- -- 92
2018-01-01 22:00:00 4.1 10 Oeste 23 Oeste 0 -- -- 89
2018-01-01 21:00:00 4.3 6 Noroeste 15 Oeste 0 -- -- 84
2018-01-01 20:00:00 5 6 Oeste 18 Oeste 0 -- -- 80
2018-01-01 19:00:00 5.9 11 Oeste 21 Oeste 0 -- -- 77
2018-01-01 18:00:00 7.1 11 Oeste 26 Oeste 0 -- -- 71
2018-01-01 17:00:00 8.1 12 Oeste 32 Oeste 0 -- -- 70
2018-01-01 16:00:00 8.2 16 Oeste 33 Oeste 0 -- -- 70
2018-01-01 15:00:00 8.1 15 Oeste 34 Oeste 0 -- -- 69
2018-01-01 14:00:00 7.8 14 Oeste 30 Oeste 0 -- -- 86
2018-01-01 13:00:00 4.9 10 Oeste 23 Oeste 0 -- -- 98
2018-01-01 12:00:00 3.8 9 Oeste 21 Noroeste 0 -- -- 98
2018-01-01 11:00:00 2.2 6 Oeste 12 Oeste 0 -- -- 98
2018-01-01 10:00:00 1.2 2 Oeste 10 Oeste 0 -- -- 97
2018-01-01 09:00:00 0.1 5 Oeste 12 Oeste 0 -- -- 96
2018-01-01 08:00:00 -0.2 3 Oeste 9 Sudoeste 0 -- -- 95
2018-01-01 07:00:00 0.8 4 Sudoeste 10 Sudoeste 0 -- -- 94
2018-01-01 06:00:00 1.6 3 Oeste 16 Noroeste 0 -- -- 90
2018-01-01 05:00:00 2.8 9 Oeste 21 Noroeste 0 -- -- 88
2018-01-01 04:00:00 3 9 Oeste 25 Oeste 0 -- -- 86
2018-01-01 03:00:00 3.7 14 Oeste 35 Noroeste 0 -- -- 80
2018-01-01 02:00:00 3.8 18 Noroeste 32 Noroeste 0 -- -- 81
2018-01-01 01:00:00 4.2 14 Oeste 33 Noroeste 0 -- -- 83
2018-01-01 00:00:00 5 23 Noroeste 38 Noroeste 0.2 -- -- 83
2017-12-31 23:00:00 5.8 18 Noroeste 31 Noroeste 0 -- -- 92
2017-12-31 22:00:00 6.1 20 Noroeste 41 Oeste 0 -- -- 92
2017-12-31 21:00:00 6.6 28 Noroeste 49 Noroeste 1.4 -- -- 91
2017-12-31 20:00:00 8.5 22 Oeste 42 Oeste 0.2 -- -- 91
2017-12-31 19:00:00 8.7 19 Oeste 39 Oeste 0 -- -- 88
2017-12-31 18:00:00 8.7 17 Oeste 35 Oeste 0 -- -- 86
2017-12-31 17:00:00 9 17 Oeste 41 Oeste 0 -- -- 85
2017-12-31 16:00:00 9.5 20 Oeste 49 Oeste 0 -- -- 79
2017-12-31 15:00:00 8.9 20 Oeste 40 Oeste 0 -- -- 97
2017-12-31 14:00:00 8 11 Oeste 25 Oeste 0 -- -- 98
2017-12-31 13:00:00 7.8 8 Oeste 20 Oeste 0 -- -- 98
2017-12-31 12:00:00 7.5 9 Oeste 23 Oeste 0 -- -- 98
2017-12-31 11:00:00 6 3 Sudoeste 7 Sudoeste 0 -- -- 99
2017-12-31 10:00:00 5.2 3 Sudoeste 7 Sudoeste 0 -- -- 98
2017-12-31 09:00:00 4.9 3 Oeste 12 Oeste 0 -- -- 98
2017-12-31 08:00:00 4.4 0 Calma 3 Sur 0 -- -- 98
2017-12-31 07:00:00 4.2 2 Sudoeste 6 Oeste 0 -- -- 98
2017-12-31 06:00:00 2.2 0 Calma 2 Norte 0 -- -- 97
2017-12-31 05:00:00 2.3 0 Calma 4 Este 0 -- -- 97
2017-12-31 04:00:00 3.1 0 Calma 4 Este 0 -- -- 96
2017-12-31 03:00:00 3.6 2 Nordeste 4 Noroeste 0 -- -- 97
2017-12-31 02:00:00 2.9 0 Calma 0 Calma 0 -- -- 96
2017-12-31 01:00:00 3.7 0 Calma 4 Nordeste 0 -- -- 96